createdAt,value
2022-08-21T00:02:22.794Z,21.03
2022-08-21T00:07:25.596Z,21.35
2022-08-21T00:12:29.948Z,21.14
2022-08-21T00:15:02.551Z,21.20
2022-08-21T00:17:31.076Z,21.12
2022-08-21T00:20:00.689Z,21.14
2022-08-21T00:22:29.033Z,20.86
2022-08-21T00:25:02.863Z,20.94
2022-08-21T00:27:32.881Z,21.12
2022-08-21T00:30:07.596Z,21.00
2022-08-21T00:32:36.373Z,20.99
2022-08-21T00:35:13.173Z,21.12
2022-08-21T00:37:48.023Z,21.02
2022-08-21T00:40:17.751Z,21.05
2022-08-21T00:42:53.766Z,21.02
2022-08-21T00:45:22.763Z,20.80
2022-08-21T00:47:51.856Z,20.68
2022-08-21T00:50:21.527Z,20.82
2022-08-21T00:52:53.341Z,20.66
2022-08-21T00:55:22.739Z,20.59
2022-08-21T00:57:57.081Z,20.64
2022-08-21T01:00:36.013Z,20.44
2022-08-21T01:03:09.071Z,20.55
2022-08-21T01:05:41.070Z,20.34
2022-08-21T01:08:09.974Z,20.72
2022-08-21T01:10:39.048Z,20.60
2022-08-21T01:13:10.837Z,20.55
2022-08-21T01:15:41.944Z,20.32
2022-08-21T01:18:12.013Z,20.55
2022-08-21T01:20:42.912Z,20.49
2022-08-21T01:23:12.693Z,20.41
2022-08-21T01:25:42.351Z,20.64
2022-08-21T01:28:13.279Z,20.39
2022-08-21T01:30:51.142Z,20.59
2022-08-21T01:33:21.415Z,20.44
2022-08-21T01:35:55.358Z,20.43
2022-08-21T01:38:32.410Z,20.28
2022-08-21T01:41:03.920Z,20.44
2022-08-21T01:43:39.621Z,20.44
2022-08-21T01:46:14.613Z,20.27
2022-08-21T01:48:43.396Z,20.36
2022-08-21T01:51:13.933Z,20.48
2022-08-21T01:53:43.617Z,20.70
2022-08-21T01:56:16.719Z,20.61
2022-08-21T01:58:47.090Z,20.79
2022-08-21T02:01:16.094Z,20.42
2022-08-21T02:03:44.791Z,20.47
2022-08-21T02:06:19.308Z,20.31
2022-08-21T02:08:49.310Z,20.32
2022-08-21T02:11:18.627Z,20.38
2022-08-21T02:13:46.923Z,20.36
2022-08-21T02:16:20.244Z,20.28
2022-08-21T02:18:49.527Z,20.41
2022-08-21T02:21:23.124Z,20.60
2022-08-21T02:23:52.832Z,20.79
2022-08-21T02:26:24.407Z,20.33
2022-08-21T02:28:53.009Z,20.51
2022-08-21T02:31:25.638Z,20.48
2022-08-21T02:33:53.973Z,20.55
2022-08-21T02:36:25.775Z,20.54
2022-08-21T02:38:55.637Z,20.29
2022-08-21T02:41:27.277Z,20.64
2022-08-21T02:43:55.660Z,20.79
2022-08-21T02:46:29.875Z,20.95
2022-08-21T02:48:58.246Z,21.07
2022-08-21T02:51:30.127Z,20.98
2022-08-21T02:53:59.792Z,21.11
2022-08-21T02:56:31.565Z,20.87
2022-08-21T02:59:00.338Z,20.84
2022-08-21T03:01:31.048Z,20.81
2022-08-21T03:04:00.004Z,20.34
2022-08-21T03:06:30.892Z,20.35
2022-08-21T03:09:00.822Z,20.48
2022-08-21T03:11:37.205Z,20.25
2022-08-21T03:14:06.250Z,20.07
2022-08-21T03:16:41.407Z,20.02
2022-08-21T03:19:09.734Z,20.12
2022-08-21T03:21:39.816Z,20.42
2022-08-21T03:24:10.013Z,20.54
2022-08-21T03:26:40.119Z,20.45
2022-08-21T03:29:09.816Z,20.34
2022-08-21T03:31:42.590Z,20.46
2022-08-21T03:34:11.794Z,20.40
2022-08-21T03:36:42.487Z,20.48
2022-08-21T03:39:12.238Z,20.19
2022-08-21T03:41:48.327Z,20.34
2022-08-21T03:44:16.723Z,20.41
2022-08-21T03:46:46.870Z,20.03
2022-08-21T03:49:15.252Z,20.12
2022-08-21T03:51:59.112Z,20.15
2022-08-21T03:54:30.145Z,20.14
2022-08-21T03:56:58.505Z,20.33
2022-08-21T03:59:32.253Z,20.16
2022-08-21T04:02:01.740Z,20.21
2022-08-21T04:04:33.548Z,20.54
2022-08-21T04:07:01.928Z,20.38
2022-08-21T04:09:36.798Z,20.31
2022-08-21T04:12:06.869Z,20.29
2022-08-21T04:14:36.952Z,20.17
2022-08-21T04:17:05.576Z,20.21
2022-08-21T04:19:37.301Z,20.25
2022-08-21T04:22:06.151Z,20.28
2022-08-21T04:24:38.476Z,20.17
2022-08-21T04:27:07.062Z,20.29
2022-08-21T04:29:44.763Z,20.32
2022-08-21T04:32:13.400Z,20.33
2022-08-21T04:34:42.442Z,20.49
2022-08-21T04:37:16.335Z,19.79
2022-08-21T04:39:49.357Z,20.07
2022-08-21T04:42:26.950Z,20.36
2022-08-21T04:44:57.431Z,20.22
2022-08-21T04:47:52.373Z,20.62
2022-08-21T04:50:15.427Z,20.32
2022-08-21T04:52:54.632Z,20.26
2022-08-21T04:55:24.626Z,20.57
2022-08-21T04:57:59.925Z,20.36
2022-08-21T05:00:29.719Z,20.72
2022-08-21T05:03:01.113Z,20.50
2022-08-21T05:05:32.856Z,20.46
2022-08-21T05:08:04.391Z,20.51
2022-08-21T05:10:44.214Z,20.53
2022-08-21T05:13:18.223Z,20.72
2022-08-21T05:15:46.690Z,20.69
2022-08-21T05:18:20.795Z,20.51
2022-08-21T05:20:49.147Z,20.50
2022-08-21T05:23:23.771Z,20.63
2022-08-21T05:25:53.467Z,20.38
2022-08-21T05:28:26.898Z,20.40
2022-08-21T05:30:55.536Z,20.41
2022-08-21T05:33:25.334Z,20.64
2022-08-21T05:35:54.028Z,20.69
2022-08-21T05:38:25.797Z,20.72
2022-08-21T05:40:55.935Z,20.46
2022-08-21T05:43:27.794Z,20.75
2022-08-21T05:45:56.443Z,20.75
2022-08-21T05:48:25.644Z,20.71
2022-08-21T05:50:55.484Z,20.60
2022-08-21T05:53:30.537Z,20.64
2022-08-21T05:56:00.215Z,20.73
2022-08-21T05:58:31.546Z,20.92
2022-08-21T06:01:00.587Z,21.25
2022-08-21T06:03:31.840Z,21.00
2022-08-21T06:06:00.206Z,20.99
2022-08-21T06:08:36.695Z,20.58
2022-08-21T06:11:07.020Z,20.82
2022-08-21T06:13:36.489Z,20.81
2022-08-21T06:16:05.982Z,20.75
2022-08-21T06:18:40.690Z,20.87
2022-08-21T06:21:09.514Z,20.66
2022-08-21T06:23:38.192Z,20.72
2022-08-21T06:26:08.408Z,20.87
2022-08-21T06:28:38.044Z,20.74
2022-08-21T06:31:12.042Z,20.94
2022-08-21T06:33:40.944Z,20.79
2022-08-21T06:36:10.228Z,20.67
2022-08-21T06:38:51.261Z,20.88
2022-08-21T06:41:26.417Z,21.06
2022-08-21T06:43:55.443Z,21.07
2022-08-21T06:46:25.552Z,20.93
2022-08-21T06:48:56.225Z,20.79
2022-08-21T06:51:26.482Z,21.02
2022-08-21T06:53:54.922Z,20.98
2022-08-21T06:56:26.139Z,20.97
2022-08-21T06:58:56.814Z,21.05
2022-08-21T07:04:00.012Z,20.63
2022-08-21T07:06:34.050Z,20.95
2022-08-21T07:09:04.014Z,21.01
2022-08-21T07:11:38.457Z,21.23
2022-08-21T07:14:20.074Z,21.32
2022-08-21T07:16:49.038Z,21.46
2022-08-21T07:19:17.934Z,21.38
2022-08-21T07:21:46.246Z,21.24
2022-08-21T07:24:21.029Z,21.45
2022-08-21T07:26:51.047Z,21.47
2022-08-21T07:29:19.845Z,21.48
2022-08-21T07:31:48.222Z,21.44
2022-08-21T07:34:18.221Z,21.80
2022-08-21T07:36:48.204Z,22.02
2022-08-21T07:39:24.792Z,22.34
2022-08-21T07:41:54.611Z,22.25
2022-08-21T07:44:25.860Z,22.22
2022-08-21T07:46:54.173Z,22.30
2022-08-21T07:49:23.190Z,22.12
2022-08-21T07:51:52.902Z,21.90
2022-08-21T07:54:33.516Z,21.88
2022-08-21T07:57:10.586Z,22.44
2022-08-21T07:59:38.993Z,22.62
2022-08-21T08:02:10.585Z,22.48
2022-08-21T08:04:50.536Z,22.44
2022-08-21T08:07:20.001Z,22.53
2022-08-21T08:09:55.924Z,22.82
2022-08-21T08:12:34.496Z,22.77
2022-08-21T08:15:05.814Z,22.87
2022-08-21T08:17:36.109Z,23.17
2022-08-21T08:20:05.619Z,23.08
2022-08-21T08:22:35.330Z,23.11
2022-08-21T08:25:09.272Z,22.82
2022-08-21T08:27:42.455Z,22.93
2022-08-21T08:30:11.593Z,23.21
2022-08-21T08:32:43.027Z,23.08
2022-08-21T08:35:11.776Z,22.94
2022-08-21T08:37:46.743Z,23.43
2022-08-21T08:40:25.566Z,23.12
2022-08-21T08:42:55.569Z,22.94
2022-08-21T08:45:27.374Z,23.39
2022-08-21T08:47:59.156Z,23.50
2022-08-21T08:50:29.011Z,23.38
2022-08-21T08:53:00.058Z,23.48
2022-08-21T08:55:36.768Z,23.46
2022-08-21T08:58:07.022Z,23.20
2022-08-21T09:00:36.970Z,23.72
2022-08-21T09:03:05.853Z,23.51
2022-08-21T09:05:39.039Z,23.72
2022-08-21T09:08:19.093Z,23.68
2022-08-21T09:10:49.571Z,23.81
2022-08-21T09:13:26.572Z,23.70
2022-08-21T09:15:59.799Z,23.84
2022-08-21T09:18:31.624Z,23.83
2022-08-21T09:21:05.316Z,24.11
2022-08-21T09:23:42.851Z,24.12
2022-08-21T09:26:13.998Z,24.19
2022-08-21T09:28:47.524Z,24.05
2022-08-21T09:31:19.091Z,24.47
2022-08-21T09:33:51.053Z,24.18
2022-08-21T09:36:26.296Z,24.15
2022-08-21T09:38:57.677Z,23.80
2022-08-21T09:41:29.650Z,24.04
2022-08-21T09:43:59.762Z,24.22
2022-08-21T09:46:29.656Z,24.46
2022-08-21T09:48:59.462Z,24.41
2022-08-21T09:51:32.276Z,24.27
2022-08-21T09:54:14.640Z,24.06
2022-08-21T09:57:11.264Z,24.22
2022-08-21T09:59:45.055Z,24.08
2022-08-21T10:02:25.968Z,24.37
2022-08-21T10:04:55.425Z,24.73
2022-08-21T10:07:28.471Z,24.64
2022-08-21T10:10:05.078Z,25.00
2022-08-21T10:12:35.327Z,24.54
2022-08-21T10:15:09.610Z,24.62
2022-08-21T10:17:40.009Z,24.65
2022-08-21T10:20:09.635Z,24.69
2022-08-21T10:22:42.774Z,25.16
2022-08-21T10:25:20.975Z,24.77
2022-08-21T10:27:52.074Z,25.01
2022-08-21T10:30:23.666Z,24.88
2022-08-21T10:32:59.809Z,25.12
2022-08-21T10:35:33.594Z,25.12
2022-08-21T10:38:33.583Z,25.11
2022-08-21T10:41:14.345Z,25.17
2022-08-21T10:43:44.780Z,25.40
2022-08-21T10:46:23.275Z,25.41
2022-08-21T10:48:54.168Z,25.49
2022-08-21T10:51:29.098Z,25.23
2022-08-21T10:53:59.878Z,25.36
2022-08-21T10:56:38.149Z,25.14
2022-08-21T10:59:17.870Z,24.91
2022-08-21T11:01:49.605Z,25.18
2022-08-21T11:04:20.450Z,25.52
2022-08-21T11:06:54.670Z,25.48
2022-08-21T11:09:24.204Z,25.63
2022-08-21T11:11:59.513Z,25.40
2022-08-21T11:14:50.213Z,25.56
2022-08-21T11:17:22.095Z,25.65
2022-08-21T11:19:52.230Z,25.86
2022-08-21T11:22:23.696Z,25.64
2022-08-21T11:24:53.351Z,25.60
2022-08-21T11:27:23.693Z,25.71
2022-08-21T11:29:52.717Z,25.73
2022-08-21T11:32:32.275Z,25.47
2022-08-21T11:35:05.709Z,25.07
2022-08-21T11:37:39.232Z,25.40
2022-08-21T11:40:08.756Z,25.34
2022-08-21T11:42:38.452Z,25.41
2022-08-21T11:45:12.745Z,25.23
2022-08-21T11:47:52.025Z,25.62
2022-08-21T11:50:35.605Z,25.72
2022-08-21T11:53:06.906Z,25.74
2022-08-21T11:55:40.690Z,25.89
2022-08-21T11:58:12.574Z,25.79
2022-08-21T12:00:42.657Z,25.72
2022-08-21T12:03:15.752Z,25.61
2022-08-21T12:05:46.114Z,25.65
2022-08-21T12:08:20.679Z,25.68
2022-08-21T12:11:02.434Z,25.33
2022-08-21T12:13:40.139Z,25.65
2022-08-21T12:16:12.114Z,25.79
2022-08-21T12:18:48.328Z,25.11
2022-08-21T12:24:18.143Z,25.30
2022-08-21T12:26:51.966Z,25.17
2022-08-21T12:29:24.036Z,25.04
2022-08-21T12:31:56.652Z,24.75
2022-08-21T12:34:27.320Z,24.77
2022-08-21T12:36:57.460Z,24.67
2022-08-21T12:39:26.888Z,24.71
2022-08-21T12:42:01.231Z,24.80
2022-08-21T12:44:39.220Z,24.68
2022-08-21T12:47:08.924Z,24.67
2022-08-21T12:49:48.437Z,24.75
2022-08-21T12:52:24.713Z,24.92
2022-08-21T12:54:53.320Z,24.55
2022-08-21T12:57:25.674Z,24.16
2022-08-21T12:59:54.864Z,24.37
2022-08-21T13:02:25.364Z,24.63
2022-08-21T13:04:56.330Z,24.62
2022-08-21T13:07:27.312Z,24.36
2022-08-21T13:09:56.642Z,24.25
2022-08-21T13:12:32.746Z,24.33
2022-08-21T13:15:09.009Z,24.19
2022-08-21T13:17:38.772Z,24.27
2022-08-21T13:20:22.981Z,24.42
2022-08-21T13:22:54.907Z,24.33
2022-08-21T13:25:24.093Z,24.14
2022-08-21T13:27:59.573Z,24.11
2022-08-21T13:30:28.395Z,23.84
2022-08-21T13:32:58.547Z,23.63
2022-08-21T13:35:30.967Z,23.71
2022-08-21T13:38:03.405Z,23.71
2022-08-21T13:40:33.158Z,23.77
2022-08-21T13:43:12.076Z,23.43
2022-08-21T13:45:44.301Z,23.34
2022-08-21T13:48:12.920Z,23.16
2022-08-21T13:50:45.923Z,23.20
2022-08-21T13:53:23.529Z,23.23
2022-08-21T13:55:54.523Z,23.17
2022-08-21T13:58:28.708Z,23.10
2022-08-21T14:00:57.080Z,22.77
2022-08-21T14:03:30.038Z,23.00
2022-08-21T14:06:00.357Z,22.77
2022-08-21T14:08:31.903Z,22.65
2022-08-21T14:11:00.702Z,22.48
2022-08-21T14:13:35.919Z,22.52
2022-08-21T14:16:13.628Z,22.57
2022-08-21T14:18:45.766Z,22.64
2022-08-21T14:21:27.446Z,22.56
2022-08-21T14:24:06.259Z,22.58
2022-08-21T14:26:43.359Z,22.64
2022-08-21T14:29:12.004Z,22.79
2022-08-21T14:31:43.125Z,23.23
2022-08-21T14:34:18.986Z,23.13
2022-08-21T14:36:50.562Z,23.20
2022-08-21T14:39:25.918Z,23.00
2022-08-21T14:41:54.945Z,23.02
2022-08-21T14:44:23.783Z,23.10
2022-08-21T14:46:55.550Z,23.20
2022-08-21T14:49:28.813Z,22.84
2022-08-21T14:51:59.482Z,22.86
2022-08-21T14:54:31.233Z,22.92
2022-08-21T14:57:00.997Z,22.92
2022-08-21T14:59:32.873Z,22.73
2022-08-21T15:02:01.316Z,22.85
2022-08-21T15:04:31.738Z,22.79
2022-08-21T15:07:01.435Z,22.84
2022-08-21T15:09:31.143Z,23.01
2022-08-21T15:12:00.444Z,23.09
2022-08-21T15:14:30.767Z,22.92
2022-08-21T15:17:01.054Z,22.85
2022-08-21T15:19:30.597Z,22.72
2022-08-21T15:22:04.263Z,22.60
2022-08-21T15:24:38.892Z,22.57
2022-08-21T15:27:08.810Z,22.18
2022-08-21T15:29:42.765Z,22.55
2022-08-21T15:32:19.853Z,22.68
2022-08-21T15:34:48.637Z,22.47
2022-08-21T15:37:26.116Z,22.66
2022-08-21T15:39:55.514Z,22.45
2022-08-21T15:42:27.674Z,22.69
2022-08-21T15:44:56.521Z,22.52
2022-08-21T15:47:28.424Z,22.59
2022-08-21T15:49:57.077Z,22.76
2022-08-21T15:52:29.499Z,22.63
2022-08-21T15:54:58.052Z,22.66
2022-08-21T15:57:27.611Z,22.46
2022-08-21T15:59:58.390Z,22.61
2022-08-21T16:02:31.314Z,22.65
2022-08-21T16:05:00.053Z,22.47
2022-08-21T16:07:30.999Z,22.54
2022-08-21T16:09:59.633Z,22.73
2022-08-21T16:12:31.851Z,22.36
2022-08-21T16:15:00.603Z,22.41
2022-08-21T16:17:30.813Z,22.34
2022-08-21T16:20:02.973Z,22.58
2022-08-21T16:22:43.876Z,22.39
2022-08-21T16:25:19.932Z,22.22
2022-08-21T16:27:50.524Z,22.51
2022-08-21T16:30:26.438Z,22.34
2022-08-21T16:33:03.487Z,22.67
2022-08-21T16:35:32.635Z,22.47
2022-08-21T16:38:05.543Z,22.50
2022-08-21T16:40:34.429Z,22.47
2022-08-21T16:43:04.184Z,22.34
2022-08-21T16:45:33.349Z,22.47
2022-08-21T16:48:04.659Z,22.36
2022-08-21T16:50:33.006Z,22.16
2022-08-21T16:53:07.131Z,21.96
2022-08-21T16:55:36.986Z,21.90
2022-08-21T16:58:07.182Z,22.11
2022-08-21T17:00:35.569Z,21.87
2022-08-21T17:03:08.164Z,21.89
2022-08-21T17:05:36.843Z,21.84
2022-08-21T17:08:11.971Z,21.91
2022-08-21T17:10:42.015Z,22.15
2022-08-21T17:13:13.146Z,21.83
2022-08-21T17:15:41.935Z,22.25
2022-08-21T17:18:12.814Z,22.29
2022-08-21T17:20:41.159Z,22.03
2022-08-21T17:23:13.284Z,21.87
2022-08-21T17:25:43.555Z,21.76
2022-08-21T17:28:18.973Z,21.50
2022-08-21T17:30:47.338Z,21.60
2022-08-21T17:33:18.153Z,21.99
2022-08-21T17:35:46.535Z,22.14
2022-08-21T17:38:18.899Z,22.21
2022-08-21T17:40:49.843Z,22.08
2022-08-21T17:43:19.901Z,21.93
2022-08-21T17:45:50.604Z,22.00
2022-08-21T17:48:25.490Z,21.84
2022-08-21T17:50:58.807Z,21.78
2022-08-21T17:53:27.980Z,21.98
2022-08-21T17:55:58.301Z,22.13
2022-08-21T17:58:27.381Z,22.21
2022-08-21T18:00:56.209Z,21.89
2022-08-21T18:03:28.159Z,21.66
2022-08-21T18:05:58.831Z,21.85
2022-08-21T18:08:29.557Z,21.85
2022-08-21T18:10:59.322Z,21.74
2022-08-21T18:13:29.139Z,21.60
2022-08-21T18:15:57.713Z,21.86
2022-08-21T18:18:32.120Z,21.72
2022-08-21T18:21:00.810Z,21.89
2022-08-21T18:23:43.824Z,21.90
2022-08-21T18:26:15.537Z,21.90
2022-08-21T18:28:44.331Z,21.97
2022-08-21T18:31:14.229Z,21.99
2022-08-21T18:33:57.021Z,22.04
2022-08-21T18:36:27.617Z,22.17
2022-08-21T18:39:25.835Z,22.14
2022-08-21T18:41:54.746Z,22.20
2022-08-21T18:44:27.417Z,21.89
2022-08-21T18:46:57.294Z,21.63
2022-08-21T18:49:29.219Z,21.76
2022-08-21T18:52:05.754Z,21.80
2022-08-21T18:54:34.367Z,21.50
2022-08-21T18:57:12.554Z,21.75
2022-08-21T18:59:47.064Z,21.74
2022-08-21T19:02:27.424Z,21.80
2022-08-21T19:05:02.888Z,21.61
2022-08-21T19:07:41.398Z,21.71
2022-08-21T19:10:28.595Z,21.48
2022-08-21T19:13:02.008Z,21.40
2022-08-21T19:15:45.724Z,21.34
2022-08-21T19:18:15.642Z,21.24
2022-08-21T19:23:35.571Z,21.40
2022-08-21T19:26:08.246Z,21.38
2022-08-21T19:28:41.303Z,21.28
2022-08-21T19:31:16.637Z,21.37
2022-08-21T19:33:57.685Z,21.30
2022-08-21T19:36:34.035Z,21.37
2022-08-21T19:42:03.862Z,21.06
2022-08-21T19:44:43.110Z,21.26
2022-08-21T19:47:29.387Z,20.99
2022-08-21T19:50:17.415Z,20.91
2022-08-21T19:52:55.665Z,20.83
2022-08-21T19:55:29.498Z,20.93
2022-08-21T19:57:58.051Z,20.87
2022-08-21T20:00:30.873Z,20.61
2022-08-21T20:03:05.368Z,20.65
2022-08-21T20:05:39.858Z,20.94
2022-08-21T20:08:20.192Z,20.71
2022-08-21T20:10:50.193Z,20.79
2022-08-21T20:13:22.885Z,20.45
2022-08-21T20:16:01.083Z,20.33
2022-08-21T20:18:35.212Z,20.43
2022-08-21T20:21:08.309Z,20.45
2022-08-21T20:23:48.266Z,20.50
2022-08-21T20:26:24.072Z,20.65
2022-08-21T20:31:48.852Z,20.40
2022-08-21T20:34:18.588Z,20.17
2022-08-21T20:36:50.927Z,20.35
2022-08-21T20:39:23.822Z,20.39
2022-08-21T20:41:53.142Z,20.44
2022-08-21T20:44:21.858Z,20.52
2022-08-21T20:46:54.311Z,20.49
2022-08-21T20:49:23.126Z,20.62
2022-08-21T20:51:54.479Z,20.58
2022-08-21T20:54:24.617Z,20.60
2022-08-21T20:56:55.894Z,20.73
2022-08-21T20:59:34.473Z,20.79
2022-08-21T21:05:05.392Z,20.55
2022-08-21T21:07:36.316Z,20.44
2022-08-21T21:10:07.343Z,20.70
2022-08-21T21:13:01.480Z,20.46
2022-08-21T21:15:35.659Z,20.50
2022-08-21T21:18:13.100Z,20.44
2022-08-21T21:20:46.406Z,20.27
2022-08-21T21:23:18.348Z,20.53
2022-08-21T21:25:57.154Z,20.36
2022-08-21T21:28:27.440Z,20.36
2022-08-21T21:31:05.515Z,20.29
2022-08-21T21:33:37.996Z,20.20
2022-08-21T21:36:10.445Z,20.19
2022-08-21T21:41:32.212Z,20.00
2022-08-21T21:44:09.844Z,19.98
2022-08-21T21:46:53.018Z,20.09
2022-08-21T21:49:36.373Z,20.12
2022-08-21T21:52:19.398Z,20.06
2022-08-21T21:54:58.421Z,19.87
2022-08-21T21:57:43.308Z,20.06
2022-08-21T22:00:18.994Z,19.93
2022-08-21T22:02:55.142Z,19.97
2022-08-21T22:05:42.549Z,19.89
2022-08-21T22:08:16.067Z,19.76
2022-08-21T22:10:47.293Z,19.83
2022-08-21T22:13:27.286Z,19.45
2022-08-21T22:15:59.166Z,19.64
2022-08-21T22:18:30.127Z,19.65
2022-08-21T22:21:00.541Z,19.56
2022-08-21T22:23:32.411Z,19.76
2022-08-21T22:26:04.067Z,19.91
2022-08-21T22:28:37.108Z,19.71
2022-08-21T22:31:18.242Z,19.83
2022-08-21T22:34:04.160Z,19.77
2022-08-21T22:36:38.539Z,19.67
2022-08-21T22:39:20.485Z,19.72
2022-08-21T22:41:58.822Z,19.72
2022-08-21T22:44:31.273Z,20.01
2022-08-21T22:47:08.867Z,20.16
2022-08-21T22:49:47.064Z,20.21
2022-08-21T22:52:31.672Z,20.08
2022-08-21T22:55:12.511Z,20.24
2022-08-21T22:57:42.315Z,20.08
2022-08-21T23:00:16.759Z,19.74
2022-08-21T23:02:58.633Z,19.81
2022-08-21T23:05:36.067Z,19.95
2022-08-21T23:08:24.350Z,19.83
2022-08-21T23:10:59.730Z,19.40
2022-08-21T23:13:29.899Z,19.68
2022-08-21T23:16:03.934Z,19.57
2022-08-21T23:18:49.713Z,19.93
2022-08-21T23:21:28.192Z,19.97
2022-08-21T23:24:04.241Z,19.85
2022-08-21T23:26:40.430Z,19.87
2022-08-21T23:32:17.277Z,19.71
2022-08-21T23:34:57.510Z,19.58
2022-08-21T23:40:50.508Z,19.29
2022-08-21T23:43:25.207Z,19.39
2022-08-21T23:46:00.961Z,19.44
2022-08-21T23:48:39.713Z,19.17
2022-08-21T23:51:14.114Z,19.40
2022-08-21T23:53:56.356Z,19.39
2022-08-21T23:56:27.536Z,19.19
2022-08-21T23:59:00.381Z,19.52
